Time;durP1;ratioP1;P1;durP2;ratioP2;P2;SDS_P1;SDS_P2;PMS_P1;PMS_P2;Temp;Humidity;BMP_temperature;BMP_pressure;BME280_temperature;BME280_humidity;BME280_pressure;Samples;Min_cycle;Max_cycle;Signal;HPM_P1;HPM_P2
2022/05/23 00:00:11;;;;;;;;;;;22.40;73.20;;;;;;4938520;29;19918;-64
2022/05/23 00:02:37;;;;;;;;;;;22.20;74.30;;;;;;4938453;29;19911;-64
2022/05/23 00:05:03;;;;;;;;;;;22.10;75.00;;;;;;4938224;29;19921;-64
2022/05/23 00:07:30;;;;;;;;;;;21.90;76.10;;;;;;4921476;29;20379;-64
2022/05/23 00:09:56;;;;;;;;;;;22.00;77.10;;;;;;4938291;29;20356;-65
2022/05/23 00:12:22;;;;;;;;;;;22.10;76.30;;;;;;4938528;29;19935;-64
2022/05/23 00:14:49;;;;;;;;;;;22.10;76.70;;;;;;4938356;29;19917;-63
2022/05/23 00:17:15;;;;;;;;;;;22.10;75.30;;;;;;4937996;29;19919;-63
2022/05/23 00:19:41;;;;;;;;;;;22.20;74.60;;;;;;4938010;29;19918;-63
2022/05/23 00:22:06;;;;;;;;;;;22.10;74.90;;;;;;4938155;29;19915;-64
2022/05/23 00:24:32;;;;;;;;;;;22.00;75.00;;;;;;4938013;29;19915;-64
2022/05/23 00:26:58;;;;;;;;;;;22.10;75.50;;;;;;4938061;29;19918;-64
2022/05/23 00:29:23;;;;;;;;;;;22.20;75.70;;;;;;4938055;29;19918;-65
2022/05/23 00:37:18;;;;;;;;;;;22.30;74.70;;;;;;4938057;29;19929;-65
2022/05/23 00:39:44;;;;;;;;;;;22.30;74.70;;;;;;4937088;29;19997;-64
2022/05/23 00:44:56;;;;;;;;;;;22.20;76.20;;;;;;4937845;29;19917;-63
2022/05/23 00:47:23;;;;;;;;;;;22.10;77.10;;;;;;4921009;29;20009;-63
2022/05/23 00:49:49;;;;;;;;;;;22.00;77.30;;;;;;4937406;29;19911;-65
2022/05/23 00:52:27;;;;;;;;;;;21.80;79.00;;;;;;4937484;29;19911;-63
2022/05/23 00:54:54;;;;;;;;;;;21.90;78.90;;;;;;4937354;29;19959;-63
2022/05/23 00:57:23;;;;;;;;;;;21.90;79.00;;;;;;4937571;29;19919;-63
2022/05/23 00:59:48;;;;;;;;;;;21.80;80.60;;;;;;4937525;29;19967;-63
2022/05/23 01:02:15;;;;;;;;;;;21.70;80.50;;;;;;4937502;29;19915;-63
2022/05/23 01:04:41;;;;;;;;;;;21.80;80.00;;;;;;4937326;29;20358;-63
2022/05/23 01:07:07;;;;;;;;;;;21.70;79.50;;;;;;4937235;29;20009;-63
2022/05/23 01:09:33;;;;;;;;;;;21.70;79.00;;;;;;4937209;29;20024;-63
2022/05/23 01:11:59;;;;;;;;;;;21.80;79.30;;;;;;4937007;29;19983;-63
2022/05/23 01:14:25;;;;;;;;;;;22.00;77.40;;;;;;4937482;29;19918;-64
2022/05/23 01:16:52;;;;;;;;;;;21.90;79.90;;;;;;4937267;29;20464;-64
2022/05/23 01:19:17;;;;;;;;;;;21.90;80.50;;;;;;4937171;29;20283;-64
2022/05/23 01:21:46;;;;;;;;;;;21.90;80.90;;;;;;4936936;29;19911;-63
2022/05/23 01:24:17;;;;;;;;;;;22.00;80.10;;;;;;4937066;29;19911;-63
2022/05/23 01:26:43;;;;;;;;;;;22.00;81.30;;;;;;4937060;29;19986;-63
2022/05/23 01:29:12;;;;;;;;;;;22.00;80.30;;;;;;4937412;29;20390;-62
2022/05/23 01:31:38;;;;;;;;;;;21.70;81.60;;;;;;4936891;29;19925;-63
2022/05/23 01:34:03;;;;;;;;;;;21.50;79.80;;;;;;4937045;29;19911;-64
2022/05/23 01:36:29;;;;;;;;;;;21.50;78.40;;;;;;4936604;29;20294;-64
2022/05/23 01:38:55;;;;;;;;;;;21.80;75.90;;;;;;4936588;29;19925;-64
2022/05/23 01:41:21;;;;;;;;;;;22.00;74.90;;;;;;4936695;29;20244;-63
2022/05/23 01:43:47;;;;;;;;;;;21.70;76.80;;;;;;4936837;29;19911;-63
2022/05/23 01:46:12;;;;;;;;;;;21.80;75.00;;;;;;4936749;29;19915;-63
2022/05/23 01:48:38;;;;;;;;;;;21.90;73.70;;;;;;4936683;29;19914;-63
2022/05/23 01:51:03;;;;;;;;;;;21.90;73.90;;;;;;4936739;29;20356;-63
2022/05/23 01:53:29;;;;;;;;;;;22.00;73.20;;;;;;4936441;29;19910;-63
2022/05/23 01:55:55;;;;;;;;;;;22.10;73.40;;;;;;4935916;29;19914;-63
2022/05/23 02:01:13;;;;;;;;;;;22.00;73.50;;;;;;4935410;29;19982;-63
2022/05/23 02:01:15;;;;;;;;;;;22.00;72.50;;;;;;4936063;29;20001;-63
2022/05/23 02:03:41;;;;;;;;;;;22.10;71.00;;;;;;4936382;29;19911;-62
2022/05/23 02:06:07;;;;;;;;;;;22.20;70.50;;;;;;4936434;29;20283;-63
2022/05/23 02:08:32;;;;;;;;;;;22.30;69.70;;;;;;4936433;29;19911;-63
2022/05/23 02:10:58;;;;;;;;;;;22.30;68.80;;;;;;4936429;29;19996;-62
2022/05/23 02:13:23;;;;;;;;;;;22.40;67.10;;;;;;4936476;29;19911;-63
2022/05/23 02:15:49;;;;;;;;;;;22.50;66.50;;;;;;4936032;29;19911;-62
2022/05/23 02:18:15;;;;;;;;;;;22.50;66.00;;;;;;4936278;29;19918;-63
2022/05/23 02:20:40;;;;;;;;;;;22.60;64.80;;;;;;4936323;29;20276;-63
2022/05/23 02:23:06;;;;;;;;;;;22.70;64.50;;;;;;4936057;29;20360;-63
2022/05/23 02:25:32;;;;;;;;;;;22.80;64.70;;;;;;4936156;29;20033;-63
2022/05/23 02:27:58;;;;;;;;;;;22.70;65.20;;;;;;4936177;29;20375;-63
2022/05/23 02:30:23;;;;;;;;;;;22.60;66.20;;;;;;4936254;29;20001;-63
2022/05/23 02:32:49;;;;;;;;;;;22.60;66.70;;;;;;4936086;29;20271;-64
2022/05/23 02:35:16;;;;;;;;;;;22.50;67.80;;;;;;4936194;29;19915;-63
2022/05/23 02:37:42;;;;;;;;;;;22.30;69.40;;;;;;4935954;29;19927;-64
2022/05/23 02:40:08;;;;;;;;;;;22.30;70.30;;;;;;4936092;29;19943;-63
2022/05/23 02:42:33;;;;;;;;;;;22.20;70.90;;;;;;4935804;29;19997;-62
2022/05/23 02:44:59;;;;;;;;;;;22.10;71.50;;;;;;4936361;29;20001;-63
2022/05/23 02:47:25;;;;;;;;;;;22.00;71.60;;;;;;4936159;29;19911;-63
2022/05/23 02:49:50;;;;;;;;;;;22.00;72.00;;;;;;4936130;29;20027;-63
2022/05/23 02:52:16;;;;;;;;;;;22.00;72.00;;;;;;4935770;29;19917;-63
2022/05/23 02:54:41;;;;;;;;;;;22.00;71.40;;;;;;4936193;29;19915;-63
2022/05/23 02:57:07;;;;;;;;;;;22.10;71.60;;;;;;4935909;29;19918;-64
2022/05/23 02:59:33;;;;;;;;;;;22.10;71.50;;;;;;4936064;29;20399;-64
2022/05/23 03:04:44;;;;;;;;;;;22.10;71.40;;;;;;4936224;29;19918;-63
2022/05/23 03:07:09;;;;;;;;;;;22.10;71.50;;;;;;4938594;29;19911;-63
2022/05/23 03:09:35;;;;;;;;;;;22.00;71.90;;;;;;4939286;29;19918;-64
2022/05/23 03:12:00;;;;;;;;;;;22.00;72.40;;;;;;4939383;29;19918;-64
2022/05/23 03:14:27;;;;;;;;;;;22.00;71.50;;;;;;4939573;29;19968;-68
2022/05/23 03:16:52;;;;;;;;;;;22.10;71.40;;;;;;4938991;29;19915;-64
2022/05/23 03:19:18;;;;;;;;;;;22.00;71.60;;;;;;4939273;29;19926;-62
2022/05/23 03:27:11;;;;;;;;;;;22.10;71.70;;;;;;4939812;29;20260;-63
2022/05/23 03:29:37;;;;;;;;;;;22.10;71.40;;;;;;4939360;29;19911;-64
2022/05/23 03:32:03;;;;;;;;;;;22.10;71.70;;;;;;4939255;29;19911;-63
2022/05/23 03:34:28;;;;;;;;;;;22.00;72.40;;;;;;4939007;29;19954;-64
2022/05/23 03:36:54;;;;;;;;;;;22.00;72.80;;;;;;4938798;29;19929;-64
2022/05/23 03:39:19;;;;;;;;;;;22.00;72.60;;;;;;4938902;29;19926;-64
2022/05/23 03:41:45;;;;;;;;;;;22.00;72.80;;;;;;4938706;29;19918;-64
2022/05/23 03:44:10;;;;;;;;;;;22.00;73.10;;;;;;4938987;29;19919;-64
2022/05/23 03:46:36;;;;;;;;;;;21.90;73.40;;;;;;4938781;29;20023;-65
2022/05/23 03:49:02;;;;;;;;;;;21.90;73.90;;;;;;4938932;29;19999;-64
2022/05/23 03:51:28;;;;;;;;;;;21.80;73.80;;;;;;4938799;29;19918;-64
2022/05/23 03:53:54;;;;;;;;;;;21.80;74.20;;;;;;4938461;29;20001;-64
2022/05/23 03:56:20;;;;;;;;;;;21.80;74.20;;;;;;4938662;29;19911;-64
2022/05/23 03:58:45;;;;;;;;;;;21.80;73.80;;;;;;4938404;29;19918;-64
2022/05/23 04:01:12;;;;;;;;;;;21.80;73.80;;;;;;4938679;29;20431;-65
2022/05/23 04:03:37;;;;;;;;;;;21.80;74.00;;;;;;4938414;29;19911;-64
2022/05/23 04:06:03;;;;;;;;;;;21.70;74.60;;;;;;4938485;29;20009;-65
2022/05/23 04:08:30;;;;;;;;;;;21.70;74.90;;;;;;4938629;29;19911;-64
2022/05/23 04:10:56;;;;;;;;;;;21.70;74.90;;;;;;4938240;29;20394;-64
2022/05/23 04:13:22;;;;;;;;;;;21.70;75.10;;;;;;4938121;29;19911;-63
2022/05/23 04:15:47;;;;;;;;;;;21.70;75.30;;;;;;4938430;29;19918;-65
2022/05/23 04:18:13;;;;;;;;;;;21.70;75.60;;;;;;4937705;29;20426;-64
2022/05/23 04:20:39;;;;;;;;;;;21.70;75.50;;;;;;4938385;29;19918;-64
2022/05/23 04:23:08;;;;;;;;;;;21.70;74.80;;;;;;4938000;29;19910;-63
2022/05/23 04:25:37;;;;;;;;;;;21.80;74.50;;;;;;4937828;29;19918;-65
2022/05/23 04:28:03;;;;;;;;;;;21.90;73.70;;;;;;4938063;29;19938;-65
2022/05/23 04:30:29;;;;;;;;;;;22.00;73.00;;;;;;4938168;29;20348;-65
2022/05/23 04:35:50;;;;;;;;;;;22.00;73.20;;;;;;4902654;29;19916;-64
2022/05/23 04:38:16;;;;;;;;;;;22.00;73.30;;;;;;4937569;29;19923;-65
2022/05/23 04:40:42;;;;;;;;;;;22.00;73.30;;;;;;4937846;29;20370;-64
2022/05/23 04:43:07;;;;;;;;;;;22.00;73.30;;;;;;4937585;29;19911;-65
2022/05/23 04:45:33;;;;;;;;;;;22.10;73.30;;;;;;4937611;29;19918;-65
2022/05/23 04:50:43;;;;;;;;;;;22.10;73.30;;;;;;4937672;29;20475;-65
2022/05/23 04:53:08;;;;;;;;;;;22.10;73.10;;;;;;4937497;29;19919;-66
2022/05/23 04:55:36;;;;;;;;;;;22.20;72.90;;;;;;4937637;29;20345;-65
2022/05/23 04:58:02;;;;;;;;;;;22.20;72.90;;;;;;4937454;29;19922;-65
2022/05/23 05:00:31;;;;;;;;;;;22.20;72.80;;;;;;4937515;29;19911;-65
2022/05/23 05:02:59;;;;;;;;;;;22.30;72.00;;;;;;4937289;29;19918;-64
2022/05/23 05:05:28;;;;;;;;;;;22.30;72.30;;;;;;4937427;29;20396;-64
2022/05/23 05:07:57;;;;;;;;;;;22.30;72.30;;;;;;4937188;29;19910;-63
2022/05/23 05:10:23;;;;;;;;;;;22.30;72.10;;;;;;4937443;29;19993;-64
2022/05/23 05:12:52;;;;;;;;;;;22.40;72.30;;;;;;4936915;29;20252;-64
2022/05/23 05:15:18;;;;;;;;;;;22.40;72.90;;;;;;4937125;29;19954;-64
2022/05/23 05:17:44;;;;;;;;;;;22.50;72.70;;;;;;4937131;29;19954;-65
2022/05/23 05:20:10;;;;;;;;;;;22.50;72.30;;;;;;4937147;29;20013;-65
2022/05/23 05:22:36;;;;;;;;;;;22.60;72.90;;;;;;4936980;29;19958;-64
2022/05/23 05:25:03;;;;;;;;;;;22.60;72.00;;;;;;4936760;29;20022;-66
2022/05/23 05:27:29;;;;;;;;;;;22.70;71.80;;;;;;4936935;29;19923;-66
2022/05/23 05:29:54;;;;;;;;;;;22.80;70.80;;;;;;4936720;29;19918;-59
2022/05/23 05:32:40;;;;;;;;;;;22.90;71.00;;;;;;4936736;29;19997;-65
2022/05/23 05:35:07;;;;;;;;;;;23.00;70.30;;;;;;4936700;29;20340;-60
2022/05/23 05:37:43;;;;;;;;;;;23.20;69.50;;;;;;4936734;29;19930;-60
2022/05/23 05:40:10;;;;;;;;;;;23.40;68.10;;;;;;4937183;29;19918;-60
2022/05/23 05:42:44;;;;;;;;;;;23.80;69.30;;;;;;4936704;29;19965;-58
2022/05/23 05:45:12;;;;;;;;;;;24.10;67.50;;;;;;4936835;29;19911;-65
2022/05/23 05:47:40;;;;;;;;;;;24.50;66.40;;;;;;4936453;29;19911;-68
2022/05/23 05:50:10;;;;;;;;;;;24.90;64.60;;;;;;4936565;29;20378;-59
2022/05/23 05:52:37;;;;;;;;;;;25.20;64.00;;;;;;4936458;29;19911;-62
2022/05/23 05:55:04;;;;;;;;;;;25.40;62.70;;;;;;4936752;29;20005;-68
2022/05/23 05:57:30;;;;;;;;;;;25.70;62.20;;;;;;4936623;29;19919;-68
2022/05/23 05:59:55;;;;;;;;;;;25.80;60.90;;;;;;4936828;29;19918;-69
2022/05/23 06:02:21;;;;;;;;;;;25.80;60.30;;;;;;4936819;29;19911;-69
2022/05/23 06:04:47;;;;;;;;;;;25.80;60.30;;;;;;4944427;29;19934;-68
2022/05/23 06:12:47;;;;;;;;;;;25.90;60.60;;;;;;4941975;29;19982;-64
2022/05/23 06:15:13;;;;;;;;;;;25.90;60.50;;;;;;4937256;29;20355;-72
2022/05/23 06:17:42;;;;;;;;;;;25.90;60.30;;;;;;4919949;29;19923;-68
2022/05/23 06:20:08;;;;;;;;;;;25.80;60.40;;;;;;4937079;29;20406;-69
2022/05/23 06:22:34;;;;;;;;;;;25.80;60.90;;;;;;4936496;29;19918;-70
2022/05/23 06:25:02;;;;;;;;;;;25.90;60.70;;;;;;4936153;29;19911;-67
2022/05/23 06:27:28;;;;;;;;;;;26.00;59.60;;;;;;4936194;29;19929;-71
2022/05/23 06:29:53;;;;;;;;;;;25.90;60.00;;;;;;4936231;29;19911;-71
2022/05/23 06:32:19;;;;;;;;;;;26.00;59.80;;;;;;4935397;29;19911;-67
2022/05/23 06:34:44;;;;;;;;;;;25.70;60.00;;;;;;4935715;29;19997;-68
2022/05/23 06:37:10;;;;;;;;;;;25.70;60.70;;;;;;4935576;29;19927;-63
2022/05/23 06:39:35;;;;;;;;;;;25.60;60.10;;;;;;4935768;29;19915;-63
2022/05/23 06:42:01;;;;;;;;;;;25.60;60.10;;;;;;4938335;29;19911;-65
2022/05/23 06:44:27;;;;;;;;;;;25.70;60.50;;;;;;4939544;29;19910;-60
2022/05/23 06:46:52;;;;;;;;;;;25.70;60.50;;;;;;4939814;29;19914;-68
2022/05/23 06:49:18;;;;;;;;;;;25.70;59.60;;;;;;4939506;29;19959;-64
2022/05/23 06:51:49;;;;;;;;;;;25.50;60.20;;;;;;4939218;29;19918;-60
2022/05/23 06:54:15;;;;;;;;;;;25.50;61.20;;;;;;4939402;29;19966;-60
2022/05/23 06:56:42;;;;;;;;;;;25.60;60.20;;;;;;4939459;29;20336;-61
2022/05/23 06:59:09;;;;;;;;;;;25.80;60.10;;;;;;4921987;29;19965;-64
2022/05/23 07:01:35;;;;;;;;;;;26.10;59.20;;;;;;4939228;29;19919;-66
2022/05/23 07:04:01;;;;;;;;;;;26.20;59.00;;;;;;4939004;29;19911;-71
2022/05/23 07:14:41;;;;;;;;;;;26.50;57.60;;;;;;4938984;29;19925;-64
2022/05/23 07:17:07;;;;;;;;;;;26.60;57.30;;;;;;4939135;29;19928;-68
2022/05/23 07:19:34;;;;;;;;;;;26.60;57.90;;;;;;4921785;29;20413;-59
2022/05/23 07:22:02;;;;;;;;;;;26.60;58.30;;;;;;4947017;29;19910;-67
2022/05/23 07:24:28;;;;;;;;;;;26.80;58.10;;;;;;4947854;29;19922;-66
2022/05/23 07:26:54;;;;;;;;;;;27.10;57.20;;;;;;4948809;29;20009;-58
2022/05/23 07:29:23;;;;;;;;;;;27.30;56.60;;;;;;4927121;29;19934;-66
2022/05/23 07:31:49;;;;;;;;;;;27.50;56.20;;;;;;4947329;29;19910;-64
2022/05/23 07:34:15;;;;;;;;;;;27.50;55.60;;;;;;4954263;29;19911;-62
2022/05/23 07:36:41;;;;;;;;;;;27.60;55.20;;;;;;4953528;29;19922;-65
2022/05/23 07:44:22;;;;;;;;;;;27.70;55.20;;;;;;5204969;23;19934;-64
2022/05/23 07:46:47;;;;;;;;;;;27.70;54.90;;;;;;4946638;29;19919;-65
2022/05/23 07:49:13;;;;;;;;;;;27.90;54.60;;;;;;4947496;29;19958;-58
2022/05/23 07:51:38;;;;;;;;;;;27.90;54.20;;;;;;4948317;28;20258;-58
2022/05/23 08:02:17;;;;;;;;;;;28.20;53.00;;;;;;4957631;29;19918;-62
2022/05/23 08:04:43;;;;;;;;;;;28.20;53.40;;;;;;4957685;29;20273;-59
2022/05/23 08:07:09;;;;;;;;;;;28.20;53.50;;;;;;4948884;29;19918;-68
2022/05/23 08:09:35;;;;;;;;;;;28.30;53.30;;;;;;4948297;29;19911;-63
2022/05/23 08:12:02;;;;;;;;;;;28.30;53.70;;;;;;4946975;29;19966;-58
2022/05/23 08:14:28;;;;;;;;;;;28.30;53.10;;;;;;4944869;29;19963;-60
2022/05/23 08:16:53;;;;;;;;;;;28.30;53.50;;;;;;4944590;29;19960;-60
2022/05/23 08:19:19;;;;;;;;;;;28.30;53.50;;;;;;4945061;29;19930;-62
2022/05/23 08:21:50;;;;;;;;;;;28.40;53.30;;;;;;4944511;29;19914;-58
2022/05/23 08:24:16;;;;;;;;;;;28.40;53.40;;;;;;4944685;29;19969;-59
2022/05/23 08:26:42;;;;;;;;;;;28.50;53.70;;;;;;4945152;29;20045;-60
2022/05/23 08:29:08;;;;;;;;;;;28.40;52.90;;;;;;4944262;29;20287;-60
2022/05/23 08:31:33;;;;;;;;;;;28.30;51.80;;;;;;4944276;29;19919;-57
2022/05/23 08:33:59;;;;;;;;;;;28.30;52.20;;;;;;4945415;29;19914;-68
2022/05/23 08:36:25;;;;;;;;;;;28.30;51.70;;;;;;4940872;29;20271;-62
2022/05/23 08:38:50;;;;;;;;;;;28.40;51.70;;;;;;4938337;29;19975;-56
2022/05/23 08:41:16;;;;;;;;;;;28.40;52.00;;;;;;4937822;29;20422;-68
2022/05/23 08:43:47;;;;;;;;;;;28.40;51.70;;;;;;4937672;29;19911;-66
2022/05/23 08:46:17;;;;;;;;;;;28.50;51.60;;;;;;4942401;29;19923;-62
2022/05/23 08:48:47;;;;;;;;;;;28.40;51.70;;;;;;4946667;29;19918;-63
2022/05/23 08:51:15;;;;;;;;;;;28.50;52.40;;;;;;4945583;29;19914;-58
2022/05/23 08:54:06;;;;;;;;;;;28.50;52.30;;;;;;4947291;29;19970;-63
2022/05/23 08:56:39;;;;;;;;;;;28.50;52.30;;;;;;4939821;29;19950;-64
2022/05/23 08:59:11;;;;;;;;;;;28.50;51.90;;;;;;4945707;29;19919;-59
2022/05/23 09:01:43;;;;;;;;;;;28.50;52.10;;;;;;4946933;29;19975;-69
2022/05/23 09:04:13;;;;;;;;;;;28.40;51.80;;;;;;4939568;28;19919;-58
2022/05/23 09:06:45;;;;;;;;;;;28.40;51.70;;;;;;4941763;29;19937;-59
2022/05/23 09:09:13;;;;;;;;;;;28.40;52.20;;;;;;4944234;29;20362;-58
2022/05/23 09:11:41;;;;;;;;;;;28.30;51.70;;;;;;4945140;29;19910;-58
2022/05/23 09:14:07;;;;;;;;;;;28.40;52.10;;;;;;4943097;29;20363;-57
2022/05/23 09:16:40;;;;;;;;;;;28.60;52.10;;;;;;4950265;29;19917;-59
2022/05/23 09:19:05;;;;;;;;;;;28.60;51.90;;;;;;4945132;29;20023;-60
2022/05/23 09:24:16;;;;;;;;;;;28.50;52.70;;;;;;4944741;29;19918;-59
2022/05/23 09:26:43;;;;;;;;;;;28.40;52.60;;;;;;4945004;29;20013;-63
2022/05/23 09:29:09;;;;;;;;;;;28.40;53.00;;;;;;4946597;29;19965;-60
2022/05/23 09:31:35;;;;;;;;;;;28.40;52.80;;;;;;4945980;29;20403;-73
2022/05/23 09:34:01;;;;;;;;;;;28.50;52.20;;;;;;4944743;29;20268;-62
2022/05/23 09:36:47;;;;;;;;;;;28.40;51.50;;;;;;4944154;29;19911;-62
2022/05/23 09:39:20;;;;;;;;;;;28.40;51.30;;;;;;4936745;29;19919;-60
2022/05/23 09:47:44;;;;;;;;;;;28.30;52.20;;;;;;4937099;29;19921;-58
2022/05/23 09:50:11;;;;;;;;;;;28.20;52.60;;;;;;4936583;29;19915;-59
2022/05/23 09:52:42;;;;;;;;;;;28.20;52.40;;;;;;4936701;29;20318;-58
2022/05/23 09:55:09;;;;;;;;;;;28.10;52.70;;;;;;4936161;29;19911;-59
2022/05/23 09:57:35;;;;;;;;;;;28.10;52.90;;;;;;4936356;29;19919;-59
2022/05/23 10:00:03;;;;;;;;;;;28.20;52.20;;;;;;4936093;29;20437;-59
2022/05/23 10:02:29;;;;;;;;;;;28.20;51.80;;;;;;4936579;29;19911;-60
2022/05/23 10:04:54;;;;;;;;;;;28.10;51.70;;;;;;4936459;29;19915;-60
2022/05/23 10:07:22;;;;;;;;;;;28.10;51.30;;;;;;4936561;29;19934;-62
2022/05/23 10:09:54;;;;;;;;;;;28.00;52.60;;;;;;4936330;29;20001;-62
2022/05/23 10:12:21;;;;;;;;;;;28.10;53.70;;;;;;4936104;29;19914;-61
2022/05/23 10:14:48;;;;;;;;;;;28.10;53.10;;;;;;4936388;29;19915;-61
2022/05/23 10:17:26;;;;;;;;;;;28.10;52.00;;;;;;4935651;29;20017;-63
2022/05/23 10:19:53;;;;;;;;;;;28.10;52.60;;;;;;4936336;29;19962;-64
2022/05/23 10:22:22;;;;;;;;;;;28.20;52.20;;;;;;4936250;29;20430;-58
2022/05/23 10:24:50;;;;;;;;;;;28.20;52.50;;;;;;4936188;29;20399;-60
2022/05/23 10:27:20;;;;;;;;;;;28.30;52.90;;;;;;4936142;29;19911;-60
2022/05/23 10:29:59;;;;;;;;;;;28.30;52.50;;;;;;4938886;29;19918;-61
2022/05/23 10:32:30;;;;;;;;;;;28.30;53.30;;;;;;4934668;29;19911;-60
2022/05/23 10:35:08;;;;;;;;;;;28.40;53.10;;;;;;4935421;29;19911;-61
2022/05/23 10:37:36;;;;;;;;;;;28.40;52.30;;;;;;4936114;29;20048;-62
2022/05/23 10:42:51;;;;;;;;;;;28.40;51.50;;;;;;4936298;29;19926;-62
2022/05/23 10:45:32;;;;;;;;;;;28.50;51.10;;;;;;4935649;29;19930;-59
2022/05/23 10:48:20;;;;;;;;;;;28.50;51.50;;;;;;4936096;29;19918;-60
2022/05/23 10:50:52;;;;;;;;;;;28.40;52.20;;;;;;4934318;29;19915;-59
2022/05/23 10:53:23;;;;;;;;;;;28.40;51.30;;;;;;4941565;29;19960;-62
2022/05/23 10:55:51;;;;;;;;;;;28.50;51.40;;;;;;4944438;29;19911;-63
2022/05/23 10:58:33;;;;;;;;;;;28.40;51.50;;;;;;4946020;29;19925;-67
2022/05/23 11:01:17;;;;;;;;;;;28.40;51.30;;;;;;4949445;29;20570;-67
2022/05/23 11:03:43;;;;;;;;;;;28.40;51.00;;;;;;4955144;29;19910;-66
2022/05/23 11:06:08;;;;;;;;;;;28.40;50.60;;;;;;4955030;29;19933;-68
2022/05/23 11:08:42;;;;;;;;;;;28.40;51.30;;;;;;4954845;29;20386;-63
2022/05/23 11:11:13;;;;;;;;;;;28.30;52.30;;;;;;4955020;29;19910;-60
2022/05/23 11:13:39;;;;;;;;;;;28.40;52.20;;;;;;4944035;29;20278;-59
2022/05/23 11:16:23;;;;;;;;;;;28.40;51.50;;;;;;4943286;29;20001;-62
2022/05/23 11:19:07;;;;;;;;;;;28.40;51.30;;;;;;4954942;29;20397;-59
2022/05/23 11:21:37;;;;;;;;;;;28.40;51.30;;;;;;4954868;29;19911;-61
2022/05/23 11:24:07;;;;;;;;;;;28.30;51.10;;;;;;4955181;29;20327;-60
2022/05/23 11:26:37;;;;;;;;;;;28.30;51.50;;;;;;4955208;28;19954;-59
2022/05/23 11:34:50;;;;;;;;;;;28.30;52.50;;;;;;4948791;29;20281;-63
2022/05/23 11:39:49;;;;;;;;;;;28.40;53.40;;;;;;4957953;29;20044;-59
2022/05/23 11:42:32;;;;;;;;;;;28.40;54.00;;;;;;4956919;29;19914;-62
2022/05/23 11:47:57;;;;;;;;;;;28.30;53.80;;;;;;4919475;29;19918;-62
2022/05/23 11:50:26;;;;;;;;;;;28.20;53.30;;;;;;4919336;29;19919;-71
2022/05/23 11:53:10;;;;;;;;;;;28.10;53.60;;;;;;4919584;29;20324;-62
2022/05/23 11:55:52;;;;;;;;;;;28.10;54.20;;;;;;4919287;29;19911;-59
2022/05/23 11:58:36;;;;;;;;;;;28.00;54.10;;;;;;4918932;29;20446;-57
2022/05/23 12:01:04;;;;;;;;;;;27.90;53.90;;;;;;4918928;29;20232;-58
2022/05/23 12:03:47;;;;;;;;;;;27.80;54.10;;;;;;4919180;29;19923;-62
2022/05/23 12:06:18;;;;;;;;;;;27.70;54.60;;;;;;4918982;29;19911;-63
2022/05/23 12:09:02;;;;;;;;;;;27.70;55.10;;;;;;4921193;29;19990;-63
2022/05/23 12:11:27;;;;;;;;;;;27.60;54.90;;;;;;4925812;29;19915;-63
2022/05/23 12:14:00;;;;;;;;;;;27.50;55.30;;;;;;4925358;29;19911;-62
2022/05/23 12:16:31;;;;;;;;;;;27.50;55.80;;;;;;4922834;29;19958;-63
2022/05/23 12:19:17;;;;;;;;;;;27.50;55.80;;;;;;4925935;29;19919;-62
2022/05/23 12:21:44;;;;;;;;;;;27.30;56.10;;;;;;4926201;29;19911;-63
2022/05/23 12:24:29;;;;;;;;;;;27.10;56.20;;;;;;4919719;29;20001;-61
2022/05/23 12:26:59;;;;;;;;;;;27.00;57.30;;;;;;4918844;29;19918;-61
2022/05/23 12:29:30;;;;;;;;;;;27.10;58.70;;;;;;4918774;29;19918;-59
2022/05/23 12:32:08;;;;;;;;;;;27.20;58.90;;;;;;4918632;29;20333;-59
2022/05/23 12:34:39;;;;;;;;;;;27.20;59.20;;;;;;4918680;29;19963;-59
2022/05/23 12:37:05;;;;;;;;;;;27.10;59.50;;;;;;4918846;29;19918;-60
2022/05/23 12:39:42;;;;;;;;;;;27.10;58.70;;;;;;4917989;29;19923;-58
2022/05/23 12:42:08;;;;;;;;;;;27.10;58.90;;;;;;4918144;29;20000;-60
2022/05/23 12:44:52;;;;;;;;;;;27.00;59.60;;;;;;4918262;29;20354;-64
2022/05/23 12:47:29;;;;;;;;;;;26.90;60.30;;;;;;4918329;29;19922;-63
2022/05/23 12:49:55;;;;;;;;;;;27.00;60.20;;;;;;4918404;29;19974;-65
2022/05/23 12:52:20;;;;;;;;;;;27.00;60.30;;;;;;4918040;29;20343;-63
2022/05/23 12:55:01;;;;;;;;;;;27.10;59.90;;;;;;4918205;29;19911;-60
2022/05/23 12:57:45;;;;;;;;;;;27.10;59.70;;;;;;4918223;29;19911;-65
2022/05/23 13:00:15;;;;;;;;;;;27.00;59.40;;;;;;4917998;29;20056;-66
2022/05/23 13:02:47;;;;;;;;;;;26.90;60.30;;;;;;4918058;29;19919;-63
2022/05/23 13:05:38;;;;;;;;;;;27.00;60.00;;;;;;4917743;29;19954;-62
2022/05/23 13:08:07;;;;;;;;;;;27.00;60.10;;;;;;4927580;29;19984;-66
2022/05/23 13:10:34;;;;;;;;;;;26.80;60.00;;;;;;4945294;29;19910;-61
2022/05/23 13:13:19;;;;;;;;;;;26.80;59.70;;;;;;4947034;29;19915;-64
2022/05/23 13:15:45;;;;;;;;;;;26.60;59.70;;;;;;4943433;29;19911;-60
2022/05/23 13:23:39;;;;;;;;;;;26.90;59.30;;;;;;4942399;29;19961;-60
2022/05/23 13:26:07;;;;;;;;;;;26.90;58.50;;;;;;4944651;29;20346;-61
2022/05/23 13:28:37;;;;;;;;;;;27.00;58.60;;;;;;4929007;29;19911;-61
2022/05/23 13:31:06;;;;;;;;;;;27.00;58.70;;;;;;4946717;29;19910;-61
2022/05/23 13:33:33;;;;;;;;;;;27.10;58.40;;;;;;4945634;29;20414;-63
2022/05/23 13:36:00;;;;;;;;;;;27.10;58.30;;;;;;4945128;29;20294;-61
2022/05/23 13:38:28;;;;;;;;;;;27.20;57.60;;;;;;4946167;29;20367;-61
2022/05/23 13:40:56;;;;;;;;;;;27.20;58.00;;;;;;4933315;29;21345;-63
2022/05/23 13:43:23;;;;;;;;;;;27.20;58.30;;;;;;4934686;29;20002;-59
2022/05/23 13:45:56;;;;;;;;;;;27.10;58.00;;;;;;4934752;29;19961;-64
2022/05/23 13:48:27;;;;;;;;;;;27.10;57.50;;;;;;4935037;29;19915;-58
2022/05/23 13:50:55;;;;;;;;;;;27.10;57.30;;;;;;4934681;29;19910;-60
2022/05/23 13:53:45;;;;;;;;;;;27.10;57.60;;;;;;4948957;29;19933;-63
2022/05/23 13:56:13;;;;;;;;;;;26.90;57.40;;;;;;4954255;29;19910;-63
2022/05/23 13:58:50;;;;;;;;;;;27.00;56.90;;;;;;4954039;29;19943;-62
2022/05/23 14:01:21;;;;;;;;;;;26.90;57.50;;;;;;4953898;29;19958;-57
2022/05/23 14:03:53;;;;;;;;;;;26.90;57.30;;;;;;4954136;29;20255;-61
2022/05/23 14:06:22;;;;;;;;;;;26.80;56.90;;;;;;4954204;29;19910;-64
2022/05/23 14:08:54;;;;;;;;;;;26.90;56.50;;;;;;4953912;29;20382;-67
2022/05/23 14:11:20;;;;;;;;;;;26.90;56.20;;;;;;4936688;29;19915;-65
2022/05/23 14:13:46;;;;;;;;;;;26.90;56.10;;;;;;4953750;29;19911;-63
2022/05/23 14:16:16;;;;;;;;;;;26.90;55.60;;;;;;4948498;29;19917;-61
2022/05/23 14:18:42;;;;;;;;;;;26.90;54.80;;;;;;4944874;29;20004;-61
2022/05/23 14:21:27;;;;;;;;;;;26.80;55.60;;;;;;4943428;29;19911;-64
2022/05/23 14:23:53;;;;;;;;;;;26.90;55.70;;;;;;4941434;29;19910;-65
2022/05/23 14:26:19;;;;;;;;;;;26.90;54.90;;;;;;4942907;29;19922;-66
2022/05/23 14:28:47;;;;;;;;;;;26.90;53.70;;;;;;4937875;29;19922;-59
2022/05/23 14:31:25;;;;;;;;;;;26.80;54.40;;;;;;4940564;29;19915;-60
2022/05/23 14:33:56;;;;;;;;;;;26.70;54.30;;;;;;4943414;29;20270;-59
2022/05/23 14:36:26;;;;;;;;;;;26.70;54.40;;;;;;4945728;29;19914;-61
2022/05/23 14:38:54;;;;;;;;;;;26.70;54.20;;;;;;4940913;29;19926;-60
2022/05/23 14:41:27;;;;;;;;;;;26.70;54.50;;;;;;4951133;29;19911;-64
2022/05/23 14:43:57;;;;;;;;;;;26.80;54.70;;;;;;4946698;29;19921;-62
2022/05/23 14:46:24;;;;;;;;;;;26.80;55.00;;;;;;4943879;29;20021;-65
2022/05/23 14:48:52;;;;;;;;;;;26.90;54.30;;;;;;4949468;29;19921;-68
2022/05/23 14:51:24;;;;;;;;;;;26.90;54.10;;;;;;4953718;29;20039;-63
2022/05/23 14:56:43;;;;;;;;;;;26.70;53.20;;;;;;4953818;29;19918;-68
2022/05/23 15:01:59;;;;;;;;;;;26.90;54.40;;;;;;4955223;28;19965;-60
2022/05/23 15:04:26;;;;;;;;;;;26.90;54.20;;;;;;4955935;29;19926;-63
2022/05/23 15:06:54;;;;;;;;;;;26.90;54.20;;;;;;4953506;29;20318;-71
2022/05/23 15:09:20;;;;;;;;;;;26.80;53.90;;;;;;4958627;29;19970;-69
2022/05/23 15:11:45;;;;;;;;;;;26.90;54.30;;;;;;4958568;29;19957;-68
2022/05/23 15:14:12;;;;;;;;;;;26.90;54.70;;;;;;4958257;29;19910;-70
2022/05/23 15:16:38;;;;;;;;;;;27.00;54.70;;;;;;4958448;29;19974;-64
2022/05/23 15:19:05;;;;;;;;;;;27.00;54.80;;;;;;4941176;29;20366;-61
2022/05/23 15:21:31;;;;;;;;;;;26.70;55.70;;;;;;4958302;29;20281;-63
2022/05/23 15:23:56;;;;;;;;;;;26.70;56.00;;;;;;4958284;29;20005;-60
2022/05/23 15:26:25;;;;;;;;;;;26.80;56.20;;;;;;4958133;29;19910;-64
2022/05/23 15:28:51;;;;;;;;;;;26.80;55.80;;;;;;4958338;29;19914;-60
2022/05/23 15:31:18;;;;;;;;;;;26.80;55.80;;;;;;4958117;29;20001;-61
2022/05/23 15:33:44;;;;;;;;;;;26.80;56.20;;;;;;4958299;29;20028;-59
2022/05/23 15:36:10;;;;;;;;;;;26.80;56.30;;;;;;4958414;29;19956;-68
2022/05/23 15:38:35;;;;;;;;;;;26.80;56.20;;;;;;4940859;29;20001;-63
2022/05/23 15:41:02;;;;;;;;;;;26.70;56.70;;;;;;4958034;29;19936;-59
2022/05/23 15:43:28;;;;;;;;;;;26.70;56.60;;;;;;4957955;29;19958;-60
2022/05/23 15:45:53;;;;;;;;;;;26.80;56.60;;;;;;4957678;29;19922;-60